Racecast

Henry Larkin

Oakland Tech (CA) · 12 · PAC · Compare head to head

Athlete rating 139.7 2014 TF season
Best race 140.0 TF
Races 63
Seasons 5 2014 — 2018

RankedNation #104·CA #19·Team #2 ?

Rating scale ?
Speed rating — all races

Track & Field

TF speed rating

2018 TF

Oakland Tech (CA) · Grade 12

Date Meet Event Result Place Rating Difficulty PR/SR Flags
2018-06-02 100th CIF State T&F Champs Finals 2018 400m 47.93 7th · 1st on team -0.043
2018-06-01 100th CIF State T&F Champs Prelims 2018 400m 47.89 2nd · 1st on team -0.043 ★PR SR
2018-05-23 CIF Oakland Section Trials and Finals 400m 48.91 1st · 1st on team -0.036
2018-05-23 CIF Oakland Section Trials and Finals 400m 49.69 2nd · 2nd on team -0.036
2018-04-21 Halden Invitational 200m 22.35 2nd · 1st on team -0.026
2018-04-21 Halden Invitational 400m 48.33 1st · 1st on team -0.026
2018-04-18 Warriors Regional Meet 200m 21.98 1st · 1st on team -0.033 ★PR SR
2018-03-31 Stanford Invitational 400m 48.25 4th · 1st on team -0.047 PR SR
2018-03-24 Oakland Invitational Relays 200m 23.32 1st · 1st on team -0.036
2018-03-24 Oakland Invitational Relays 400m 49 1st · 1st on team -0.036 SR
2018-03-17 San Leandro Invitation 200m 22.61 2nd · 1st on team -0.027 SR
2018-03-17 San Leandro Invitation 400m 49.38 1st · 1st on team -0.027 SR

2017 TF

Oakland Tech (CA) · Grade 11

Date Meet Event Result Place Rating Difficulty PR/SR Flags
2017-06-02 99th CIF State T&F Champs Prelims 2017 200m 22.19 21st · 1st on team -0.043 PR SR
2017-06-02 99th CIF State T&F Champs Prelims 2017 400m 48.59 10th · 1st on team -0.043 PR SR
2017-05-25 CIF Oakland Section Finals 200m 23.48 3rd · 2nd on team -0.036
2017-05-25 CIF Oakland Section Finals 400m 51.06 2nd · 2nd on team -0.036
2017-05-25 CIF Oakland Section Finals 400m 50.54 1st · 1st on team -0.036
2017-05-25 CIF Oakland Section Finals 200m 22.59 1st · 1st on team -0.036 PR SR
2017-05-10 Regional Meet 100m 11.47 2nd · 1st on team -0.026 ★PR SR
2017-05-03 Regional Meet 200m 22.64 1st · 1st on team -0.026 SR
2017-05-03 Regional Meet 400m 49.56 1st · 1st on team -0.026
2017-04-29 Sacramento Meet of Champions 400m 48.86 1st · 1st on team -0.034 SR
2017-04-25 Regional Meet 100m 11.48 1st · 1st on team -0.033 PR SR
2017-04-25 Regional Meet 200m 22.98 1st · 1st on team -0.033 SR
2017-04-08 Arcadia Invitational (Fri/Sat) 400m 49.27 5th · 1st on team -0.044 SR
2017-02-25 Skyline Invitational 400m 51.29 1st · 1st on team -0.033 SR
2017-02-04 Berkeley AC 300m 36.69 4th · 4th on team -0.036 ★PR SR
2017-02-04 Berkeley AC 60m 7.59 25th · 20th on team -0.036 ★PR SR

2016 TF

Oakland Tech (CA) · Grade 10

Date Meet Event Result Place Rating Difficulty PR/SR Flags
2016-06-03 98th CIF State T&F Champs Prelims 2016 400m 48.73 13th · 1st on team -0.043 PR SR
2016-05-26 CIF Oakland Section Trials and Finals 200m 23.17 5th · 3rd on team -0.033 PR SR
2016-05-26 CIF Oakland Section Trials and Finals 200m 22.6 2nd · 1st on team -0.033 PR SR
2016-05-26 CIF Oakland Section Trials and Finals 400m 50.17 1st · 1st on team -0.033 PR SR
2016-05-26 CIF Oakland Section Trials and Finals 400m 50.73 3rd · 2nd on team -0.033
2016-05-06 Raiders Meet 400m 50.43 1st · 1st on team -0.026 PR SR
2016-04-22 Athletics Meet 400m 51.57 1st · 1st on team -0.026 SR

2015 TF

Oakland Tech (CA) · Grade 9

Date Meet Event Result Place Rating Difficulty PR/SR Flags
2015-05-27 CIF Oakland Section Finals 400m 50.86 1st · 1st on team -0.033 PR SR
2015-05-27 CIF Oakland Section Finals 200m 23.18 3rd · 3rd on team -0.033 PR SR
2015-05-20 OAL League Meet 200m 23.26 1st · 1st on team -0.033 PR SR
2015-05-20 OAL League Meet 400m 52.71 1st · 1st on team -0.033
2015-05-06 OAL League Meet 400m 52.43 2nd · 1st on team -0.016
2015-04-25 Fred Faucett Invit'l 400m 52.11 5th · 1st on team -0.019 PR SR
2015-04-25 Fred Faucett Invit'l 200m 24.18 11th · 3rd on team -0.019
2015-04-23 OAL League Meet 200m 23.63 2nd · 2nd on team -0.013 PR SR
2015-04-23 OAL League Meet 400m 52.87 1st · 1st on team -0.013
2015-03-28 Oakland Invitational 200m 24.11 21st · 3rd on team -0.036 PR SR
2015-03-28 Oakland Invitational 400m 52.86 7th · 1st on team -0.036 PR SR
2015-03-21 San Leandro Invitational 400m 54.57 2nd · 2nd on team -0.027
2015-02-28 Skyline Invitational 400m 53.48 9th · 2nd on team -0.033 PR SR
2015-02-28 Skyline Invitational 200m 24.62 14th · 4th on team -0.033 PR SR

2014 TF 136.6

3M Track Club (CA) · Grade 8

Date Meet Event Result Place Rating Difficulty PR/SR Flags
2014-06-20 USATF Pacific Assoc. Junior Olympics (Top 8) 400m 55.16 20th · 1st on team -0.031
2014-06-20 USATF Pacific Assoc. Junior Olympics (Top 8) 800m 2:10.12 6th · 1st on team 139.7 -0.031 ★PR SR
2014-05-31 Pacific Association Championships (PAC) 800m 2:10.95 4th · 1st on team 140.0 -0.024 PR ★R SR RSR
2014-05-25 Los Angeles Jets Invitational 800m 2:12.37 7th · 1st on team 137.7 -0.028 PR R SR RSR
2014-05-25 Los Angeles Jets Invitational 400m 54.81 7th · 1st on team -0.028 PR SR
2014-05-18 3M Invitational 200m 24.87 3rd · 1st on team -0.028 PR SR
2014-04-19 3rd Annual Shor/Sheppard Classic Meet 400m 57.16 1st · 1st on team -0.022
2014-04-19 3rd Annual Shor/Sheppard Classic Meet 800m 2:16.11 1st · 1st on team 134.7 -0.022 R RSR
2014-04-05 50th Phoenix Invitational 800m 2:15.84 5th · 1st on team 133.6 -0.033 PR SR
2014-04-05 50th Phoenix Invitational 200m 24.94 18th · 1st on team -0.033 PR SR
2014-03-29 East County Cheetahs TC 100m 12.56 5th · 1st on team -0.017 PR SR
2014-03-29 East County Cheetahs TC 800m 2:18.51 2nd · 1st on team 133.7 -0.017 PR R SR RSR
2014-03-22 RPM 100m 12.84 6th · 1st on team -0.012 PR SR
2014-03-22 RPM 400m 56.54 3rd · 1st on team -0.012 PR SR